Time;durP1;ratioP1;P1;durP2;ratioP2;P2;SDS_P1;SDS_P2;PMS_P1;PMS_P2;Temp;Humidity;BMP_temperature;BMP_pressure;BME280_temperature;BME280_humidity;BME280_pressure;Samples;Min_cycle;Max_cycle;Signal;HPM_P1;HPM_P2
2022/08/07 00:01:22;;;;;;;1.13;1.02;;;21.20;55.20;;;;;;6079754;23;20186;-90
2022/08/07 00:03:54;;;;;;;1.10;1.00;;;21.20;55.10;;;;;;6080731;23;20152;-90
2022/08/07 00:06:21;;;;;;;0.90;0.90;;;21.30;55.20;;;;;;6104615;23;20175;-90
2022/08/07 00:08:51;;;;;;;1.00;1.00;;;21.20;55.10;;;;;;6079848;23;20583;-90
2022/08/07 00:11:17;;;;;;;1.00;1.00;;;21.20;55.20;;;;;;6104732;23;20177;-90
2022/08/07 00:13:44;;;;;;;1.15;1.10;;;21.30;55.20;;;;;;6080296;23;20221;-90
2022/08/07 00:16:11;;;;;;;1.13;1.02;;;21.20;55.20;;;;;;6081068;23;20485;-90
2022/08/07 00:18:38;;;;;;;1.17;1.08;;;21.20;55.20;;;;;;6104481;23;20462;-90
2022/08/07 00:21:04;;;;;;;1.15;1.10;;;21.20;55.20;;;;;;6080828;23;20159;-90
2022/08/07 00:23:31;;;;;;;1.20;1.10;;;21.20;55.20;;;;;;6079985;23;20501;-90
2022/08/07 00:26:04;;;;;;;1.20;1.10;;;21.20;55.20;;;;;;6081246;23;20151;-91
2022/08/07 00:28:29;;;;;;;1.13;1.02;;;21.20;55.20;;;;;;6104317;23;20218;-90
2022/08/07 00:30:55;;;;;;;1.17;1.10;;;21.20;55.20;;;;;;6080454;23;20220;-90
2022/08/07 00:33:27;;;;;;;0.90;0.90;;;21.20;55.20;;;;;;6080149;23;20147;-90
2022/08/07 00:35:54;;;;;;;1.30;1.20;;;21.30;55.30;;;;;;6104916;23;20154;-90
2022/08/07 00:38:19;;;;;;;1.08;1.02;;;21.20;55.20;;;;;;6079887;23;20144;-89
2022/08/07 00:40:46;;;;;;;1.15;1.05;;;21.20;55.20;;;;;;6080710;23;20159;-90
2022/08/07 00:43:17;;;;;;;1.08;1.00;;;21.30;55.30;;;;;;6080337;23;20187;-91
2022/08/07 00:45:44;;;;;;;1.17;1.10;;;21.20;55.20;;;;;;6103716;23;20583;-90
2022/08/07 00:48:10;;;;;;;1.20;1.10;;;21.20;55.20;;;;;;6079306;23;20144;-91
2022/08/07 00:50:36;;;;;;;1.23;1.13;;;21.20;55.20;;;;;;6079863;23;20152;-90
2022/08/07 00:53:02;;;;;;;1.10;1.00;;;21.20;55.30;;;;;;6079709;23;20200;-90
2022/08/07 00:55:28;;;;;;;1.08;1.05;;;21.20;55.30;;;;;;6069678;23;20271;-90
2022/08/07 00:57:55;;;;;;;1.00;1.00;;;21.20;55.30;;;;;;6070256;23;20161;-90
2022/08/07 01:00:23;;;;;;;1.20;1.10;;;21.20;55.30;;;;;;6070271;23;20572;-91
2022/08/07 01:02:50;;;;;;;1.00;1.00;;;21.20;55.30;;;;;;6070362;23;20519;-90
2022/08/07 01:05:20;;;;;;;1.15;1.05;;;21.20;55.30;;;;;;6070927;23;20148;-91
2022/08/07 01:07:48;;;;;;;1.00;1.00;;;21.20;55.30;;;;;;6093601;23;20164;-90
2022/08/07 01:10:18;;;;;;;0.95;0.95;;;21.30;55.30;;;;;;6070261;23;20650;-90
2022/08/07 01:12:45;;;;;;;1.00;1.00;;;21.20;55.30;;;;;;6094315;23;20522;-90
2022/08/07 01:15:13;;;;;;;1.23;1.13;;;21.20;55.30;;;;;;6070728;23;20141;-90
2022/08/07 01:17:39;;;;;;;0.70;0.70;;;21.20;55.30;;;;;;6069234;23;20239;-90
2022/08/07 01:20:11;;;;;;;1.35;1.20;;;21.20;55.30;;;;;;6094109;23;20137;-90
2022/08/07 01:22:38;;;;;;;0.90;0.90;;;21.20;55.30;;;;;;6069647;23;20177;-90
2022/08/07 01:25:06;;;;;;;0.90;0.90;;;21.20;55.30;;;;;;6070678;23;20152;-90
2022/08/07 01:27:33;;;;;;;1.20;1.10;;;21.20;55.40;;;;;;6070420;23;20145;-90
2022/08/07 01:30:00;;;;;;;1.13;1.02;;;21.20;55.40;;;;;;6069632;23;20164;-90
2022/08/07 01:32:27;;;;;;;1.00;1.00;;;21.20;55.40;;;;;;6069937;23;20145;-90
2022/08/07 01:34:57;;;;;;;1.77;0.90;;;21.20;55.40;;;;;;6070635;23;20149;-90
2022/08/07 01:37:23;;;;;;;0.90;0.90;;;21.20;55.40;;;;;;6093622;23;20561;-90
2022/08/07 01:39:51;;;;;;;0.90;0.90;;;21.20;55.40;;;;;;6069825;23;20148;-90
2022/08/07 01:42:18;;;;;;;1.00;1.00;;;21.20;55.40;;;;;;6094398;23;20169;-90
2022/08/07 01:44:46;;;;;;;0.90;0.90;;;21.30;55.50;;;;;;6070327;23;20175;-90
2022/08/07 01:47:12;;;;;;;1.05;1.05;;;21.20;55.40;;;;;;6071424;23;20148;-90
2022/08/07 01:49:38;;;;;;;1.10;1.02;;;21.20;55.40;;;;;;6071167;23;20138;-89
2022/08/07 01:52:05;;;;;;;0.90;0.90;;;21.20;55.40;;;;;;6071407;23;20149;-90
2022/08/07 01:54:36;;;;;;;0.95;0.95;;;21.20;55.50;;;;;;6070466;23;20244;-89
2022/08/07 01:57:14;;;;;;;0.80;0.80;;;21.20;55.60;;;;;;6076264;23;20290;-90
2022/08/07 01:59:59;;;;;;;0.90;0.90;;;21.20;55.50;;;;;;6075431;23;20621;-90
2022/08/07 02:02:32;;;;;;;1.08;0.95;;;21.20;55.50;;;;;;6099801;23;20266;-90
2022/08/07 02:05:03;;;;;;;1.20;1.10;;;21.20;55.50;;;;;;6075917;23;20261;-90
2022/08/07 02:07:33;;;;;;;0.82;0.82;;;21.20;55.50;;;;;;6075377;23;20606;-90
2022/08/07 02:10:01;;;;;;;1.20;1.10;;;21.20;55.50;;;;;;6076100;23;20213;-90
2022/08/07 02:12:29;;;;;;;0.90;0.90;;;21.20;55.40;;;;;;6076316;23;20152;-90
2022/08/07 02:14:55;;;;;;;1.00;1.00;;;21.20;55.50;;;;;;6076052;23;20613;-90
2022/08/07 02:17:22;;;;;;;1.00;1.00;;;21.20;55.50;;;;;;6075459;23;20184;-90
2022/08/07 02:19:55;;;;;;;1.02;1.00;;;21.20;55.50;;;;;;6075121;23;20156;-90
2022/08/07 02:22:24;;;;;;;1.70;1.00;;;21.20;55.60;;;;;;6075496;23;20176;-89
2022/08/07 02:24:53;;;;;;;0.90;0.90;;;21.20;55.50;;;;;;6099820;23;20170;-91
2022/08/07 02:27:21;;;;;;;0.95;0.93;;;21.20;55.60;;;;;;6075868;23;20603;-90
2022/08/07 02:29:50;;;;;;;0.95;0.93;;;21.20;55.60;;;;;;6074973;23;20190;-90
2022/08/07 02:32:17;;;;;;;1.08;1.00;;;21.20;55.60;;;;;;6074717;23;20156;-90
2022/08/07 02:34:48;;;;;;;0.90;0.90;;;21.20;55.60;;;;;;6075176;23;20563;-91
2022/08/07 02:37:13;;;;;;;0.93;0.93;;;21.20;55.60;;;;;;6099214;23;20145;-90
2022/08/07 02:39:43;;;;;;;1.17;1.08;;;21.20;55.60;;;;;;6076346;23;20286;-90
2022/08/07 02:42:10;;;;;;;0.90;0.90;;;21.20;55.60;;;;;;6075377;23;20334;-90
2022/08/07 02:44:40;;;;;;;0.77;0.77;;;21.20;55.60;;;;;;6075985;23;20147;-90
2022/08/07 02:47:06;;;;;;;1.13;1.02;;;21.20;55.60;;;;;;6099033;23;20152;-90
2022/08/07 02:49:32;;;;;;;0.88;0.88;;;21.20;55.60;;;;;;6099210;23;20572;-90
2022/08/07 02:51:59;;;;;;;0.90;0.90;;;21.20;55.60;;;;;;6075802;23;20145;-90
2022/08/07 02:54:26;;;;;;;0.80;0.80;;;21.20;55.60;;;;;;6076058;23;20249;-90
2022/08/07 02:56:52;;;;;;;0.98;0.98;;;21.20;55.70;;;;;;6074889;23;20245;-90
2022/08/07 02:59:20;;;;;;;1.02;0.90;;;21.20;55.60;;;;;;6075126;23;20148;-90
2022/08/07 03:01:49;;;;;;;0.80;0.80;;;21.20;55.60;;;;;;6074954;23;20172;-90
2022/08/07 03:04:17;;;;;;;0.90;0.90;;;21.20;55.70;;;;;;6099858;23;20473;-90
2022/08/07 03:06:45;;;;;;;0.85;0.85;;;21.20;55.70;;;;;;6075501;23;20567;-91
2022/08/07 03:09:11;;;;;;;0.90;0.90;;;21.20;55.70;;;;;;6122921;23;20198;-90
2022/08/07 03:11:36;;;;;;;0.80;0.80;;;21.20;55.70;;;;;;6074631;23;20144;-90
2022/08/07 03:14:03;;;;;;;0.95;0.95;;;21.20;55.70;;;;;;6075648;23;20144;-91
2022/08/07 03:16:29;;;;;;;1.05;0.98;;;21.20;55.70;;;;;;6074682;23;20144;-90
2022/08/07 03:19:01;;;;;;;0.95;0.95;;;21.20;55.70;;;;;;6099341;23;20133;-90
2022/08/07 03:21:27;;;;;;;1.17;1.13;;;21.20;55.70;;;;;;6098300;23;20142;-90
2022/08/07 03:23:58;;;;;;;1.08;1.00;;;21.20;55.70;;;;;;6099429;23;20129;-90
2022/08/07 03:26:27;;;;;;;0.70;0.70;;;21.20;55.70;;;;;;6100488;23;20167;-90
2022/08/07 03:28:58;;;;;;;1.10;1.00;;;21.20;55.70;;;;;;6076016;23;20157;-90
2022/08/07 03:31:25;;;;;;;1.02;0.98;;;21.30;55.80;;;;;;6100519;23;20159;-90
2022/08/07 03:33:56;;;;;;;0.75;0.75;;;21.10;55.70;;;;;;6076766;23;20151;-90
2022/08/07 03:36:26;;;;;;;0.90;0.90;;;21.20;55.70;;;;;;6078079;23;20206;-90
2022/08/07 03:38:56;;;;;;;0.90;0.90;;;21.20;55.70;;;;;;6102334;23;20148;-90
2022/08/07 03:41:23;;;;;;;1.02;0.98;;;21.20;55.70;;;;;;6079477;23;20587;-90
2022/08/07 03:43:50;;;;;;;1.02;1.00;;;21.20;55.70;;;;;;6078998;23;20208;-91
2022/08/07 03:46:16;;;;;;;0.98;0.98;;;21.20;55.70;;;;;;6078914;23;20141;-90
2022/08/07 03:48:44;;;;;;;0.80;0.80;;;21.30;55.80;;;;;;6080521;23;20145;-90
2022/08/07 03:51:15;;;;;;;2.28;0.80;;;21.20;55.70;;;;;;6080179;23;20163;-90
2022/08/07 03:53:46;;;;;;;1.05;0.95;;;21.20;55.70;;;;;;6171091;23;20161;-90
2022/08/07 03:56:16;;;;;;;1.00;1.00;;;21.20;55.70;;;;;;6040728;23;20196;-90
2022/08/07 03:58:46;;;;;;;0.82;0.82;;;21.20;55.60;;;;;;6028932;23;20183;-90
2022/08/07 04:01:17;;;;;;;1.00;0.90;;;21.20;55.70;;;;;;6136802;23;20159;-91
2022/08/07 04:03:46;;;;;;;1.15;1.00;;;21.20;55.60;;;;;;6112109;23;20208;-90
2022/08/07 04:06:20;;;;;;;1.02;0.98;;;21.20;55.70;;;;;;6114355;23;20147;-91
2022/08/07 04:09:02;;;;;;;0.85;0.85;;;21.20;55.60;;;;;;6114502;23;20151;-90
2022/08/07 04:11:33;;;;;;;0.70;0.70;;;21.30;55.60;;;;;;6138341;23;20132;-91
2022/08/07 04:14:00;;;;;;;0.80;0.80;;;21.30;55.60;;;;;;6113796;23;20148;-90
2022/08/07 04:16:31;;;;;;;0.85;0.85;;;21.30;55.60;;;;;;6113509;23;20214;-91
2022/08/07 04:19:02;;;;;;;0.93;0.93;;;21.30;55.50;;;;;;6114895;23;20214;-91
2022/08/07 04:21:29;;;;;;;0.70;0.70;;;21.30;55.50;;;;;;6078983;23;20243;-91
2022/08/07 04:23:58;;;;;;;1.00;1.00;;;21.30;55.50;;;;;;6055695;23;20661;-91
2022/08/07 04:26:27;;;;;;;0.70;0.70;;;21.30;55.50;;;;;;6045040;23;20150;-91
2022/08/07 04:28:56;;;;;;;0.90;0.90;;;21.30;55.50;;;;;;6044425;23;20160;-90
2022/08/07 04:31:23;;;;;;;0.80;0.80;;;21.40;55.50;;;;;;6019610;23;20241;-90
2022/08/07 04:33:52;;;;;;;0.90;0.90;;;21.40;55.50;;;;;;6045327;23;20198;-91
2022/08/07 04:36:28;;;;;;;0.88;0.88;;;21.40;55.40;;;;;;6045394;23;20158;-90
2022/08/07 04:39:03;;;;;;;0.80;0.80;;;21.40;55.30;;;;;;6075368;23;20620;-90
2022/08/07 04:41:43;;;;;;;;;;;;;;;;;;;;;
2022/08/07 04:44:13;;;;;;;1.05;0.95;;;21.40;55.40;;;;;;6074241;23;20183;-90
2022/08/07 04:47:12;;;;;;;0.95;0.93;;;21.50;55.30;;;;;;6074117;23;20153;-91
2022/08/07 04:49:52;;;;;;;1.08;0.82;;;21.40;55.30;;;;;;6098263;23;20212;-90
2022/08/07 04:52:31;;;;;;;1.02;1.00;;;21.40;55.30;;;;;;6072713;23;20153;-91
2022/08/07 04:55:04;;;;;;;1.35;0.90;;;21.40;55.30;;;;;;6034733;23;20238;-90
2022/08/07 04:57:47;;;;;;;0.80;0.80;;;21.50;55.30;;;;;;6013982;23;20202;-90
2022/08/07 05:00:26;;;;;;;0.80;0.80;;;21.50;55.20;;;;;;6037989;23;20186;-91
2022/08/07 05:03:17;;;;;;;0.73;0.73;;;21.50;55.30;;;;;;6021660;23;20189;-91
2022/08/07 05:05:50;;;;;;;0.88;0.88;;;21.60;55.10;;;;;;6042104;23;20153;-91
2022/08/07 05:08:24;;;;;;;0.98;0.90;;;21.50;55.10;;;;;;6021870;23;20286;-91
2022/08/07 05:11:00;;;;;;;1.20;1.00;;;21.60;55.10;;;;;;6023642;23;20154;-91
2022/08/07 05:13:30;;;;;;;0.77;0.77;;;21.60;54.90;;;;;;6040212;23;20170;-90
2022/08/07 05:16:02;;;;;;;0.80;0.80;;;21.60;54.90;;;;;;6041633;23;20222;-91
2022/08/07 05:18:33;;;;;;;1.15;1.05;;;21.60;54.80;;;;;;6018442;23;20182;-90
2022/08/07 05:21:05;;;;;;;0.98;0.98;;;21.70;54.90;;;;;;6027204;23;20178;-90
2022/08/07 05:23:38;;;;;;;1.10;1.00;;;21.70;54.90;;;;;;5988422;24;20506;-90
2022/08/07 05:26:07;;;;;;;0.75;0.75;;;21.60;54.80;;;;;;6004134;23;20245;-91
2022/08/07 05:28:36;;;;;;;0.90;0.90;;;21.70;54.70;;;;;;5960896;24;20156;-91
2022/08/07 05:31:09;;;;;;;1.00;1.00;;;21.80;54.60;;;;;;5932497;24;20160;-89
2022/08/07 05:33:48;;;;;;;0.90;0.90;;;21.80;54.60;;;;;;5956414;24;20165;-91
2022/08/07 05:36:17;;;;;;;0.82;0.82;;;21.80;54.60;;;;;;5927476;24;20171;-90
2022/08/07 05:38:47;;;;;;;0.90;0.90;;;21.80;54.60;;;;;;5904628;24;20179;-90
2022/08/07 05:41:16;;;;;;;0.80;0.80;;;21.80;54.60;;;;;;5965515;24;20167;-90
2022/08/07 05:43:47;;;;;;;1.02;1.00;;;21.90;54.50;;;;;;5976995;24;20192;-91
2022/08/07 05:46:23;;;;;;;0.90;0.90;;;21.90;54.60;;;;;;5955362;24;20156;-90
2022/08/07 05:48:52;;;;;;;0.80;0.80;;;21.90;54.40;;;;;;5955686;24;20181;-91
2022/08/07 05:51:23;;;;;;;0.90;0.90;;;21.90;54.40;;;;;;5955439;24;20558;-90
2022/08/07 05:53:52;;;;;;;0.85;0.85;;;21.90;54.20;;;;;;5988970;23;20163;-90
2022/08/07 05:56:21;;;;;;;0.90;0.90;;;21.90;54.30;;;;;;5994816;23;20287;-91
2022/08/07 05:58:47;;;;;;;0.98;0.85;;;22.00;54.40;;;;;;5928520;23;20270;-90
2022/08/07 06:01:19;;;;;;;0.82;0.82;;;21.90;54.40;;;;;;6043939;23;20157;-90
2022/08/07 06:03:51;;;;;;;0.85;0.85;;;21.90;54.40;;;;;;6068308;23;20182;-91
2022/08/07 06:06:25;;;;;;;1.00;0.90;;;22.00;54.30;;;;;;6067754;23;20241;-90
2022/08/07 06:08:58;;;;;;;0.80;0.80;;;21.90;54.30;;;;;;6068431;23;20180;-90
2022/08/07 06:11:26;;;;;;;0.77;0.77;;;22.00;54.40;;;;;;6043373;23;20180;-90
2022/08/07 06:14:00;;;;;;;0.70;0.70;;;22.00;54.30;;;;;;6047180;23;20236;-91
2022/08/07 06:16:27;;;;;;;0.77;0.77;;;22.00;54.30;;;;;;6087485;23;20599;-91
2022/08/07 06:18:54;;;;;;;0.73;0.73;;;22.00;54.20;;;;;;6156532;23;20286;-90
2022/08/07 06:21:19;;;;;;;0.73;0.73;;;22.00;54.10;;;;;;6139486;23;20146;-90
2022/08/07 06:23:48;;;;;;;0.80;0.80;;;22.10;54.00;;;;;;6164418;23;20299;-90
2022/08/07 06:26:15;;;;;;;1.08;0.98;;;22.10;54.10;;;;;;6163137;23;20158;-90
2022/08/07 06:28:58;;;;;;;0.85;0.85;;;22.10;54.20;;;;;;6115409;23;20157;-91
2022/08/07 06:31:26;;;;;;;0.77;0.77;;;22.10;54.20;;;;;;6115916;23;20239;-91
2022/08/07 06:33:54;;;;;;;1.20;0.77;;;22.10;54.10;;;;;;6116289;23;20182;-90
2022/08/07 06:36:20;;;;;;;0.75;0.75;;;22.10;54.10;;;;;;6116088;23;20157;-90
2022/08/07 06:38:47;;;;;;;0.90;0.90;;;22.10;54.00;;;;;;6065699;23;20564;-91
2022/08/07 06:41:20;;;;;;;0.90;0.90;;;22.20;54.20;;;;;;6024935;23;20159;-90
2022/08/07 06:43:48;;;;;;;1.00;0.90;;;22.10;54.00;;;;;;6047892;23;20204;-90
2022/08/07 06:46:14;;;;;;;0.82;0.82;;;22.10;54.20;;;;;;6048420;23;20169;-90
2022/08/07 06:48:59;;;;;;;0.93;0.93;;;22.10;54.10;;;;;;6134312;23;20595;-90
2022/08/07 06:51:30;;;;;;;0.73;0.73;;;22.20;54.10;;;;;;6134577;23;20206;-90
2022/08/07 06:54:02;;;;;;;1.00;1.00;;;22.20;54.10;;;;;;6138329;23;20161;-91
2022/08/07 06:59:18;;;;;;;1.15;1.00;;;22.20;54.10;;;;;;6044699;23;20161;-91
2022/08/07 07:01:44;;;;;;;0.82;0.82;;;22.10;53.90;;;;;;6019404;23;20236;-90
2022/08/07 07:04:11;;;;;;;0.80;0.80;;;22.20;54.00;;;;;;6019262;23;20236;-90
2022/08/07 07:06:40;;;;;;;0.85;0.80;;;22.20;54.60;;;;;;6019664;23;20533;-90
2022/08/07 07:09:23;;;;;;;0.90;0.90;;;22.20;54.00;;;;;;6043327;23;20189;-91
2022/08/07 07:12:18;;;;;;;1.20;1.10;;;22.20;53.90;;;;;;6021004;23;20236;-90
2022/08/07 07:15:08;;;;;;;0.82;0.82;;;22.10;54.50;;;;;;6020492;23;20178;-90
2022/08/07 07:17:56;;;;;;;0.88;0.88;;;22.10;54.70;;;;;;6021048;23;20227;-91
2022/08/07 07:20:27;;;;;;;0.80;0.80;;;22.00;54.80;;;;;;6090648;23;20151;-90
2022/08/07 07:22:57;;;;;;;1.08;1.08;;;21.90;55.00;;;;;;6084397;23;20178;-91
2022/08/07 07:25:24;;;;;;;0.90;0.90;;;22.00;55.00;;;;;;6107328;23;20143;-90
2022/08/07 07:27:55;;;;;;;0.90;0.90;;;21.90;55.70;;;;;;6082184;23;20152;-90
2022/08/07 07:30:25;;;;;;;0.80;0.80;;;22.00;55.10;;;;;;6082303;23;20437;-90
2022/08/07 07:32:56;;;;;;;0.60;0.60;;;22.00;55.00;;;;;;6082017;23;20144;-90
2022/08/07 07:35:26;;;;;;;0.80;0.80;;;22.00;55.20;;;;;;6081460;23;20152;-90
2022/08/07 07:38:00;;;;;;;1.05;0.95;;;22.00;55.20;;;;;;6105329;23;20147;-90
2022/08/07 07:40:26;;;;;;;0.93;0.90;;;22.00;55.20;;;;;;6104770;23;20627;-91
2022/08/07 07:42:55;;;;;;;1.13;0.80;;;22.00;55.30;;;;;;6081462;23;20172;-90
2022/08/07 07:45:26;;;;;;;0.68;0.68;;;22.10;55.30;;;;;;6081600;23;20211;-91
2022/08/07 07:47:57;;;;;;;1.05;0.93;;;22.00;55.20;;;;;;6104958;23;20171;-90
2022/08/07 07:50:27;;;;;;;0.80;0.80;;;22.10;55.30;;;;;;6106788;23;20143;-90
2022/08/07 07:52:55;;;;;;;1.20;1.10;;;22.10;55.20;;;;;;6082593;23;20656;-90
2022/08/07 07:55:20;;;;;;;0.80;0.80;;;22.10;55.30;;;;;;6080782;22;20148;-90
2022/08/07 07:57:49;;;;;;;0.80;0.80;;;22.10;55.40;;;;;;6079537;23;20532;-90
2022/08/07 08:00:18;;;;;;;0.90;0.90;;;22.10;55.50;;;;;;6080817;23;20197;-90
2022/08/07 08:02:47;;;;;;;0.80;0.80;;;22.10;55.60;;;;;;6078894;23;20179;-89
2022/08/07 08:05:15;;;;;;;1.02;0.93;;;22.10;55.80;;;;;;6079767;23;20174;-90
2022/08/07 08:07:43;;;;;;;0.82;0.80;;;22.10;55.60;;;;;;6079316;23;20567;-90
2022/08/07 08:10:14;;;;;;;0.90;0.90;;;22.10;55.70;;;;;;6079501;23;20234;-90
2022/08/07 08:12:40;;;;;;;0.73;0.73;;;22.10;55.80;;;;;;6079617;23;20159;-90
2022/08/07 08:15:08;;;;;;;0.80;0.80;;;22.10;55.70;;;;;;6080688;23;20152;-90
2022/08/07 08:17:34;;;;;;;0.77;0.70;;;22.20;55.80;;;;;;6078805;23;20151;-90
2022/08/07 08:20:04;;;;;;;1.10;0.80;;;22.10;55.70;;;;;;6078757;23;20162;-90
2022/08/07 08:27:54;;;;;;;0.90;0.90;;;22.20;55.90;;;;;;6109021;23;20583;-90
2022/08/07 08:30:20;;;;;;;1.00;0.90;;;22.10;55.80;;;;;;6078768;23;20147;-91
2022/08/07 08:32:51;;;;;;;1.05;0.95;;;22.20;55.90;;;;;;6079413;23;20159;-90
2022/08/07 08:35:21;;;;;;;0.98;0.80;;;22.20;55.90;;;;;;6079169;23;20156;-91
2022/08/07 08:37:50;;;;;;;0.93;0.90;;;22.20;55.90;;;;;;6080600;23;20178;-90
2022/08/07 08:40:33;;;;;;;1.20;1.10;;;22.30;56.00;;;;;;6103269;23;20529;-91
2022/08/07 08:43:14;;;;;;;1.10;1.00;;;22.20;56.00;;;;;;6080077;23;20201;-90
2022/08/07 08:46:02;;;;;;;1.27;0.90;;;22.20;56.00;;;;;;6081303;23;20158;-90
2022/08/07 08:48:52;;;;;;;0.98;0.80;;;22.20;56.10;;;;;;6087623;23;20450;-89
2022/08/07 08:51:39;;;;;;;1.10;1.00;;;22.20;56.20;;;;;;6084289;23;20170;-90
2022/08/07 08:54:21;;;;;;;1.20;1.10;;;22.30;56.20;;;;;;6080043;23;20155;-90
2022/08/07 08:56:52;;;;;;;0.80;0.80;;;22.20;56.20;;;;;;6102187;23;20203;-90
2022/08/07 08:59:58;;;;;;;1.00;0.98;;;22.20;56.20;;;;;;6080664;23;20197;-89
2022/08/07 09:02:58;;;;;;;0.90;0.90;;;22.20;56.30;;;;;;6102656;23;20182;-90
2022/08/07 09:05:51;;;;;;;1.25;1.00;;;22.20;56.40;;;;;;6152970;23;20143;-90
2022/08/07 09:08:48;;;;;;;0.98;0.98;;;22.20;56.30;;;;;;6103332;23;20152;-90
2022/08/07 09:11:23;;;;;;;1.00;0.90;;;22.20;56.50;;;;;;6109583;23;20151;-90
2022/08/07 09:14:19;;;;;;;0.90;0.90;;;22.20;56.60;;;;;;6081003;23;20155;-90
2022/08/07 09:17:09;;;;;;;1.10;1.00;;;22.20;56.60;;;;;;6107137;23;20147;-90
2022/08/07 09:19:56;;;;;;;1.15;1.05;;;22.30;56.60;;;;;;6105943;23;20281;-90
2022/08/07 09:22:43;;;;;;;1.17;1.08;;;22.30;56.60;;;;;;6103085;23;20506;-90
2022/08/07 09:25:14;;;;;;;1.20;1.10;;;22.30;56.60;;;;;;6102938;23;20234;-90
2022/08/07 09:28:02;;;;;;;1.05;1.00;;;22.30;56.60;;;;;;6079200;23;20155;-90
2022/08/07 09:30:51;;;;;;;1.10;1.00;;;22.30;56.50;;;;;;6102843;23;20152;-90
2022/08/07 09:34:00;;;;;;;1.10;1.00;;;22.30;56.60;;;;;;6102547;23;20166;-90
2022/08/07 09:36:33;;;;;;;0.98;0.98;;;22.30;56.50;;;;;;6105916;23;20156;-90
2022/08/07 09:39:15;;;;;;;1.20;1.10;;;22.30;56.60;;;;;;6078642;23;20160;-90
2022/08/07 09:42:10;;;;;;;1.23;1.10;;;22.40;56.50;;;;;;6080106;23;20163;-90
2022/08/07 09:45:01;;;;;;;1.30;1.20;;;22.30;56.50;;;;;;6080909;23;20159;-90
2022/08/07 09:47:36;;;;;;;1.23;1.13;;;22.30;56.50;;;;;;6106332;23;20215;-91
2022/08/07 09:50:20;;;;;;;1.50;1.20;;;22.30;56.60;;;;;;6080760;23;20151;-91
2022/08/07 09:52:56;;;;;;;1.10;1.00;;;22.30;56.60;;;;;;6107099;23;20217;-90
2022/08/07 09:55:43;;;;;;;1.00;0.90;;;22.30;56.70;;;;;;6103077;22;20165;-90
2022/08/07 09:58:25;;;;;;;1.13;1.02;;;22.30;56.80;;;;;;6108471;23;20167;-90
2022/08/07 10:01:33;;;;;;;1.33;1.23;;;22.40;56.80;;;;;;6083488;23;20155;-90
2022/08/07 10:04:31;;;;;;;1.02;1.00;;;22.40;56.70;;;;;;6114476;23;20218;-90
2022/08/07 10:07:23;;;;;;;0.90;0.90;;;22.30;56.60;;;;;;6113608;23;20163;-90
2022/08/07 10:10:12;;;;;;;1.20;1.10;;;22.30;56.70;;;;;;6222438;23;20150;-90
2022/08/07 10:13:11;;;;;;;1.05;0.98;;;22.30;56.70;;;;;;6247461;23;20640;-90
2022/08/07 10:15:53;;;;;;;1.30;1.20;;;22.40;56.70;;;;;;6222729;23;20161;-91
2022/08/07 10:18:52;;;;;;;1.58;1.17;;;22.40;56.60;;;;;;6197797;23;20260;-90
2022/08/07 10:21:32;;;;;;;1.30;1.20;;;22.40;56.60;;;;;;6202131;23;20157;-90
2022/08/07 10:24:12;;;;;;;1.45;1.25;;;22.30;57.30;;;;;;6198985;23;20185;-90
2022/08/07 10:26:44;;;;;;;1.30;1.20;;;22.40;56.90;;;;;;6224832;23;20191;-90
2022/08/07 10:29:26;;;;;;;0.95;0.95;;;22.40;56.70;;;;;;6225500;23;20514;-91
2022/08/07 10:32:12;;;;;;;1.30;1.20;;;22.40;56.60;;;;;;6198913;23;20150;-90
2022/08/07 10:35:07;;;;;;;1.38;1.17;;;22.50;56.60;;;;;;6223718;23;20173;-91
2022/08/07 10:37:44;;;;;;;1.10;1.00;;;22.50;56.50;;;;;;6227987;23;20165;-90
2022/08/07 10:40:28;;;;;;;1.45;1.27;;;22.50;56.50;;;;;;6172684;23;20162;-90
2022/08/07 10:43:05;;;;;;;1.30;1.10;;;22.50;56.50;;;;;;6086617;23;20183;-90
2022/08/07 10:45:36;;;;;;;1.00;0.90;;;22.50;56.60;;;;;;6083583;23;20440;-90
2022/08/07 10:48:35;;;;;;;1.08;1.02;;;22.50;56.60;;;;;;6081620;23;20151;-90
2022/08/07 10:51:20;;;;;;;1.33;1.15;;;22.40;56.70;;;;;;6087698;23;20234;-90
2022/08/07 10:54:07;;;;;;;1.20;1.10;;;22.40;56.70;;;;;;6105717;23;20152;-90
2022/08/07 10:57:03;;;;;;;1.10;1.00;;;22.40;56.60;;;;;;6104340;23;20650;-90
2022/08/07 10:59:47;;;;;;;1.20;1.10;;;22.50;56.50;;;;;;6109084;23;20158;-90
2022/08/07 11:02:15;;;;;;;0.98;0.98;;;22.60;56.40;;;;;;6105287;23;20606;-90
2022/08/07 11:04:58;;;;;;;1.30;1.20;;;22.50;56.30;;;;;;6105116;23;20247;-91
2022/08/07 11:07:30;;;;;;;1.35;1.25;;;22.60;56.30;;;;;;6106733;23;20132;-90
2022/08/07 11:09:58;;;;;;;1.27;1.17;;;22.60;56.20;;;;;;6105586;23;20147;-90
2022/08/07 11:12:46;;;;;;;1.98;1.40;;;22.60;56.80;;;;;;6080296;23;20151;-90
2022/08/07 11:15:13;;;;;;;0.95;0.95;;;22.60;56.10;;;;;;6081441;23;20163;-91
2022/08/07 11:17:58;;;;;;;1.30;1.20;;;22.60;56.20;;;;;;6080319;23;20554;-90
2022/08/07 11:20:47;;;;;;;1.13;1.02;;;22.60;56.20;;;;;;6105282;23;20148;-91
2022/08/07 11:23:25;;;;;;;1.10;1.00;;;22.50;56.20;;;;;;6081823;23;20232;-90
2022/08/07 11:26:24;;;;;;;1.23;1.13;;;22.50;56.90;;;;;;6104276;23;20151;-91
2022/08/07 11:29:14;;;;;;;1.60;1.50;;;22.60;56.30;;;;;;6129358;23;20590;-89
2022/08/07 11:31:51;;;;;;;1.77;1.20;;;22.50;56.20;;;;;;6109837;23;20147;-90
2022/08/07 11:34:23;;;;;;;1.58;1.30;;;22.60;56.20;;;;;;6082228;23;20166;-90
2022/08/07 11:36:58;;;;;;;1.20;1.10;;;22.60;56.30;;;;;;6082767;23;20217;-90
2022/08/07 11:40:05;;;;;;;1.30;1.20;;;22.60;56.30;;;;;;6106691;23;20135;-89
2022/08/07 11:42:43;;;;;;;1.33;1.23;;;22.70;56.30;;;;;;6129251;23;20175;-90
2022/08/07 11:45:19;;;;;;;1.23;1.13;;;22.60;56.30;;;;;;6082347;23;20158;-90
2022/08/07 11:48:11;;;;;;;1.50;1.40;;;22.60;56.20;;;;;;6081521;23;20234;-91
2022/08/07 11:50:49;;;;;;;1.42;1.33;;;22.70;56.20;;;;;;6086641;23;20156;-90
2022/08/07 11:53:39;;;;;;;1.30;1.20;;;22.70;56.10;;;;;;6105807;23;20155;-90
2022/08/07 11:56:35;;;;;;;1.45;1.30;;;22.70;56.10;;;;;;6099463;23;20203;-90
2022/08/07 11:59:22;;;;;;;1.25;1.15;;;22.70;56.10;;;;;;6124408;23;20156;-90
2022/08/07 12:02:06;;;;;;;1.35;1.25;;;22.70;56.20;;;;;;6077605;23;20172;-90
2022/08/07 12:04:56;;;;;;;1.38;1.27;;;22.60;56.10;;;;;;6124644;23;20140;-90
2022/08/07 12:07:33;;;;;;;1.33;1.20;;;22.70;56.20;;;;;;6126298;23;20155;-90
2022/08/07 12:10:04;;;;;;;1.08;0.98;;;22.70;56.10;;;;;;6101168;23;20301;-90
2022/08/07 12:12:38;;;;;;;1.30;1.20;;;22.70;56.10;;;;;;6077082;23;20156;-90
2022/08/07 12:15:12;;;;;;;1.30;1.20;;;22.80;56.10;;;;;;6075711;23;20494;-90
2022/08/07 12:17:48;;;;;;;1.48;1.38;;;22.80;56.10;;;;;;6076435;23;20206;-90
2022/08/07 12:20:22;;;;;;;1.42;1.33;;;22.80;56.10;;;;;;6019546;23;20164;-90
2022/08/07 12:23:16;;;;;;;1.30;1.20;;;22.70;56.00;;;;;;6042857;23;20187;-90
2022/08/07 12:25:51;;;;;;;1.52;1.33;;;22.70;56.30;;;;;;6043355;23;20140;-90
2022/08/07 12:28:26;;;;;;;1.30;1.20;;;22.60;56.20;;;;;;6043281;23;20155;-90
2022/08/07 12:30:55;;;;;;;1.40;1.30;;;22.60;56.40;;;;;;6046018;23;20589;-90
2022/08/07 12:33:24;;;;;;;1.08;1.00;;;22.60;56.40;;;;;;6020608;23;20149;-90
2022/08/07 12:35:51;;;;;;;1.02;1.02;;;22.60;56.30;;;;;;6045383;23;20691;-90
2022/08/07 12:38:17;;;;;;;1.50;1.40;;;22.60;56.20;;;;;;6044579;23;20179;-90
2022/08/07 12:40:49;;;;;;;1.48;1.38;;;22.70;56.20;;;;;;6044739;23;20585;-90
2022/08/07 12:43:19;;;;;;;1.50;1.13;;;22.70;56.30;;;;;;6041374;23;20181;-90
2022/08/07 12:45:52;;;;;;;1.30;1.20;;;22.70;56.10;;;;;;6040966;23;20180;-90
2022/08/07 12:48:44;;;;;;;1.20;1.10;;;22.70;56.10;;;;;;6041566;23;20146;-91
2022/08/07 12:51:13;;;;;;;1.52;1.30;;;22.70;56.00;;;;;;6059847;23;20156;-90
2022/08/07 12:53:58;;;;;;;1.25;1.15;;;22.70;55.90;;;;;;6073453;23;20148;-89
2022/08/07 12:56:28;;;;;;;1.30;1.20;;;22.80;56.00;;;;;;6100179;23;20277;-91
2022/08/07 12:58:55;;;;;;;1.20;1.10;;;22.70;55.90;;;;;;6074745;23;20606;-90
2022/08/07 13:01:40;;;;;;;1.35;1.25;;;22.80;55.70;;;;;;6121688;23;20172;-90
2022/08/07 13:04:49;;;;;;;1.20;1.10;;;22.90;55.60;;;;;;6074495;23;20645;-90
2022/08/07 13:07:36;;;;;;;1.30;1.10;;;22.90;55.60;;;;;;6122345;23;20143;-90
2022/08/07 13:10:22;;;;;;;0.90;0.90;;;22.90;55.50;;;;;;6097993;23;20140;-90
2022/08/07 13:13:07;;;;;;;1.48;1.30;;;22.90;55.50;;;;;;6076054;23;20148;-90
2022/08/07 13:15:58;;;;;;;1.40;1.30;;;22.80;55.70;;;;;;6076643;23;20152;-90
2022/08/07 13:18:59;;;;;;;1.20;1.10;;;22.80;55.70;;;;;;6078116;23;20175;-90
2022/08/07 13:21:30;;;;;;;1.20;1.10;;;22.90;55.40;;;;;;6121011;23;20151;-90
2022/08/07 13:24:18;;;;;;;1.35;1.10;;;22.90;55.30;;;;;;6097251;23;20168;-90
2022/08/07 13:26:54;;;;;;;1.48;1.23;;;22.90;55.30;;;;;;6121494;23;20185;-90
2022/08/07 13:29:40;;;;;;;1.48;1.35;;;22.90;55.40;;;;;;6074333;23;20148;-89
2022/08/07 13:32:17;;;;;;;1.30;1.20;;;22.90;55.40;;;;;;6073772;23;20148;-90
2022/08/07 13:34:52;;;;;;;1.20;1.10;;;22.90;55.40;;;;;;6073776;23;20152;-90